Historyczne dane pomiarowe

Dodano dane terminowe – wersja testowa.

Dane z okresu 1951-2019

Wersja bazy: 1.34 [2019-03-16, lista zmian], aktualizacja planowana na 2019-04-15

Dane meteo z obszaru Polski uzyskane na podstawie danych udostępnionych przez Instytut Meteorologii i Gospodarki Wodnej – Państwowy Instytut Badawczy.

 

Wybierz Datę:    

       

TemperaturaWilgotnośćWiatrCiśnienieOpadyŚniegCzas trwania zjawisk
 Stacja t tx tn tng RH VA  wxwx mslp ppp RRR   cm mm wxwxwxwxwxwxwx
1999-08-14 13.0 18.2 5.7- 69.3- 4.0 2.0---- 0.0------------
1999-08-13 13.4 16.6 8.7- 84.8- 8.0 0.0---- 0.0------------
1999-08-12 15.7 18.1 13.5- 87.8- 6.3 0.7---- 4.3------------
1999-08-11 19.5 25.3 16.3- 85.0- 7.3 0.7---- 0.6------------
1999-08-10 22.7 28.7 16.8- 79.8- 6.7 2.3---- 1.0------------
1999-08-09 21.4 28.7 14.5- 78.3- 4.0 1.0---- 0.0------------
1999-08-08 19.5 22.6 13.6- 79.3- 4.3 3.0---- 0.0------------
1999-08-07 19.5 26.2 11.2- 75.8- 4.7 0.7---- 0.0------------
1999-08-06 18.0 23.6 11.7- 80.5- 8.0 1.7---- 17.4------------
1999-08-05 15.2 23.3 6.8- 77.0- 4.0 0.3---- 0.0------------
1999-08-04 14.7 20.1 9.1- 87.3- 6.3 0.7---- 0.2------------
1999-08-03 14.8 18.7 10.8- 87.0- 8.0 0.7---- 0.0------------
1999-08-02 14.4 16.3 12.7- 90.8- 8.0 0.7---- 1.7------------
1999-08-01 16.2 20.8 12.7- 79.0- 5.3 1.3---- 0.6------------
1999-07-31 16.6 21.1 11.6- 72.5- 6.0 0.3---- 0.9------------
1999-07-30 14.9 21.6 5.8- 69.0- 4.3 1.0---- 0.0------------
1999-07-29 16.6 20.6 12.5- 72.0- 5.0 1.7---- 0.0------------
1999-07-28 17.1 19.2 15.5- 88.8- 6.3 2.7---- 0.0------------
1999-07-27 18.8 24.0 14.6- 86.0- 8.0 1.3---- 0.6------------
1999-07-26 20.5 26.7 14.1- 84.0- 3.0 1.0---- 0.0------------
1999-07-25 16.0 21.0 9.8- 85.0- 8.0 1.0---- 0.1------------
1999-07-24 15.3 19.3 11.2- 86.8- 7.3 1.0---- 0.0------------
1999-07-23 15.2 19.2 13.1- 94.8- 8.0 1.7---- 18.4------------
1999-07-22 19.6 24.6 14.4- 81.3- 4.7 0.7---- 31.8------------
1999-07-21 20.8 26.8 11.8- 68.5- 2.3 2.0---- 0.1------------
1999-07-20 19.3 26.2 10.8- 68.8- 1.3 1.0---- 0.0------------
1999-07-19 16.8 24.0 7.2- 68.8- 2.3 0.7---- 0.0------------
1999-07-18 16.0 21.6 7.3- 73.0- 2.0 1.0---- 0.0------------
1999-07-17 14.3 20.6 6.3- 71.8- 3.3 1.0---- 0.0------------
1999-07-16 14.4 19.8 6.9- 81.8- 5.3 0.7---- 0.0------------
1999-07-15 15.6 18.0 13.3- 94.8- 6.0 0.7---- 5.9------------
1999-07-14 19.4 22.6 15.9- 80.5- 7.0 2.0---- 38.3------------
1999-07-13 18.5 23.6 12.9- 83.3- 6.7 2.0---- 1.3------------
1999-07-12 19.2 26.2 13.1- 81.8- 6.0 1.3---- 1.1------------
1999-07-11 20.6 23.1 16.9- 74.5- 7.0 2.3---- 0.0------------
1999-07-10 18.9 23.1 16.7- 93.3- 8.0 1.7---- 0.0------------
1999-07-09 20.7 24.7 16.8- 84.5- 6.7 2.0---- 0.0------------
1999-07-08 21.3 25.2 17.4- 87.3- 4.3 1.7---- 0.0------------
1999-07-07 22.8 28.9 17.1- 74.5- 5.0 1.0---- 26.0------------
1999-07-06 21.9 28.4 12.6- 73.5- 0.7 2.3---- 0.0------------
1999-07-05 21.1 29.1 10.9- 71.5- 1.0 0.3---- 0.0------------
1999-07-04 19.7 27.2 9.3- 68.0- 1.0 0.0---- 0.0------------
1999-07-03 18.2 23.1 11.1- 79.8- 2.0 0.7---- 0.0------------
1999-07-02 17.5 23.6 9.8- 83.8- 5.7 1.0---- 2.1------------
1999-07-01 17.4 23.8 10.4- 76.3- 4.7 1.0---- 0.0------------
1999-06-30 17.6 23.8 9.5- 81.3- 4.0 1.0---- 0.0------------
1999-06-29 17.1 23.0 10.0- 85.5- 5.3 0.3---- 0.0------------
1999-06-28 18.4 26.4 7.7- 70.3- 3.0 1.0---- 0.0------------
1999-06-27 17.2 25.6 5.1- 67.3- 0.3 0.7---- 0.0------------
1999-06-26 14.1 21.6 2.9- 70.5- 0.0 0.7---- 0.0------------
1999-06-25 12.5 16.4 8.2- 84.5- 4.7 1.0---- 0.0------------
1999-06-24 9.6 10.5 8.2- 95.5- 8.0 2.0---- 30.0------------
1999-06-23 8.8 10.3 6.8- 96.3- 8.0 3.0---- 7.0------------
1999-06-22 12.2 15.8 9.3- 98.0- 8.0 2.7---- 9.8------------
1999-06-21 16.8 23.0 12.1- 89.8- 7.0 1.0---- 65.2------------
1999-06-20 17.4 22.1 14.2- 88.5- 6.0 0.7---- 5.6------------
1999-06-19 16.9 21.4 11.7- 90.3- 7.7 2.3---- 0.0------------
1999-06-18 17.7 25.1 11.2- 83.8- 6.3 0.7---- 0.0------------
1999-06-17 17.5 22.0 13.4- 82.5- 8.0 0.0---- 0.1------------
1999-06-16 17.8 20.8 15.7- 94.0- 7.7 0.3---- 14.7------------
258.3 ms

 

Źródłem pochodzenia danych jest Instytut Meteorologii i Gospodarki Wodnej – Państwowy Instytut Badawczy. Dane Instytutu Meteorologii i Gospodarki Wodnej – Państwowego Instytutu Badawczego zostały przetworzone.

Dane źródłowe można odnaleźć na stronie https://dane.imgw.pl